Time;durP1;ratioP1;P1;durP2;ratioP2;P2;SDS_P1;SDS_P2;PMS_P1;PMS_P2;Temp;Humidity;BMP_temperature;BMP_pressure;BME280_temperature;BME280_humidity;BME280_pressure;Samples;Min_cycle;Max_cycle;Signal;HPM_P1;HPM_P2
2021/08/03 00:01:31;;;;;;;6.40;5.25;;;;;;;12.30;78.03;101225.19;5007449;28;20038;-75
2021/08/03 00:04:05;;;;;;;9.10;5.32;;;;;;;12.25;78.33;101228.25;5011285;28;20534;-74
2021/08/03 00:06:34;;;;;;;7.03;5.07;;;;;;;12.13;78.47;101219.94;4989934;28;20530;-75
2021/08/03 00:09:00;;;;;;;8.05;5.80;;;;;;;12.09;79.00;101216.00;4999279;28;20036;-75
2021/08/03 00:11:27;;;;;;;8.30;6.50;;;;;;;12.10;78.82;101222.03;4987259;28;20357;-75
2021/08/03 00:13:53;;;;;;;8.13;5.60;;;;;;;12.04;79.07;101210.47;5001411;28;20034;-75
2021/08/03 00:16:20;;;;;;;8.02;5.57;;;;;;;12.00;79.29;101214.34;4996962;28;20053;-75
2021/08/03 00:18:45;;;;;;;10.70;6.45;;;;;;;11.99;79.24;101215.31;5007996;28;20176;-75
2021/08/03 00:21:11;;;;;;;13.00;6.68;;;;;;;12.02;79.16;101215.81;4979717;28;20108;-74
2021/08/03 00:23:42;;;;;;;10.05;6.78;;;;;;;12.04;79.16;101213.06;4986065;28;20030;-74
2021/08/03 00:26:13;;;;;;;8.25;5.80;;;;;;;12.10;79.03;101222.81;4978478;28;20057;-75
2021/08/03 00:28:39;;;;;;;11.85;7.15;;;;;;;12.04;78.73;101207.88;4994098;28;20033;-74
2021/08/03 00:31:06;;;;;;;9.43;6.45;;;;;;;12.02;79.13;101207.22;4975684;28;20049;-75
2021/08/03 00:33:32;;;;;;;7.43;5.55;;;;;;;12.01;79.26;101205.56;4973458;28;20034;-74
2021/08/03 00:35:58;;;;;;;8.75;5.60;;;;;;;12.03;79.15;101211.41;4979342;28;20038;-75
2021/08/03 00:38:24;;;;;;;9.65;6.80;;;;;;;12.06;78.92;101205.91;4986176;28;20033;-75
2021/08/03 00:40:55;;;;;;;7.45;6.40;;;;;;;12.05;79.08;101199.06;4987241;28;20046;-75
2021/08/03 00:43:22;;;;;;;11.77;6.72;;;;;;;12.01;78.90;101195.16;4993119;28;20030;-75
2021/08/03 00:45:48;;;;;;;8.80;6.40;;;;;;;11.96;79.29;101193.03;4977707;28;20030;-75
2021/08/03 00:48:13;;;;;;;8.95;6.32;;;;;;;11.96;79.22;101192.22;4997905;28;20038;-75
2021/08/03 00:50:39;;;;;;;9.25;7.53;;;;;;;11.94;79.54;101197.59;4974203;28;20443;-74
2021/08/03 00:53:06;;;;;;;9.73;6.93;;;;;;;11.95;79.46;101195.78;4976280;28;20034;-75
2021/08/03 00:55:31;;;;;;;13.30;8.13;;;;;;;11.96;79.63;101197.41;4973913;28;20088;-75
2021/08/03 00:57:58;;;;;;;17.35;7.22;;;;;;;11.92;79.78;101194.31;4973401;28;20584;-74
2021/08/03 01:00:26;;;;;;;8.73;6.18;;;;;;;11.89;80.13;101192.00;4993385;28;20104;-74
2021/08/03 01:02:52;;;;;;;10.27;6.03;;;;;;;11.86;80.21;101193.09;4978757;28;20041;-75
2021/08/03 01:05:17;;;;;;;11.23;7.20;;;;;;;11.83;80.64;101195.22;4991592;28;20045;-75
2021/08/03 01:07:47;;;;;;;11.57;6.82;;;;;;;11.81;80.79;101192.78;4989419;28;20053;-74
2021/08/03 01:10:33;;;;;;;10.73;8.05;;;;;;;11.81;80.96;101195.38;4981933;28;20056;-75
2021/08/03 01:13:22;;;;;;;11.82;8.90;;;;;;;11.79;80.94;101189.53;4993275;28;20390;-75
2021/08/03 01:16:30;;;;;;;10.45;7.97;;;;;;;11.79;80.93;101189.53;4991590;28;20036;-75
2021/08/03 01:19:22;;;;;;;15.57;8.05;;;;;;;11.81;80.89;101187.59;4943722;28;20046;-75
2021/08/03 01:22:18;;;;;;;13.88;7.00;;;;;;;11.82;81.12;101191.78;5001626;28;20026;-75
2021/08/03 01:25:12;;;;;;;16.48;8.48;;;;;;;11.86;80.81;101187.09;4979428;28;20058;-74
2021/08/03 01:27:53;;;;;;;;;;;;;;;11.90;80.79;101193.66;4999969;28;20028;-75
2021/08/03 01:30:20;;;;;;;10.25;7.55;;;;;;;11.90;80.55;101193.66;4981935;28;19920;-75
2021/08/03 01:32:49;;;;;;;9.05;7.43;;;;;;;11.90;80.92;101190.25;4985240;28;20121;-75
2021/08/03 01:35:16;;;;;;;11.88;8.00;;;;;;;11.91;80.86;101184.91;4987941;28;20030;-74
2021/08/03 01:37:46;;;;;;;9.18;7.50;;;;;;;11.92;80.86;101185.69;4993070;28;20026;-75
2021/08/03 01:40:13;;;;;;;12.02;7.97;;;;;;;11.93;80.70;101187.34;4990209;28;20129;-75
2021/08/03 01:42:44;;;;;;;11.73;7.97;;;;;;;11.94;80.75;101181.16;4987144;28;20030;-75
2021/08/03 01:45:13;;;;;;;13.43;8.30;;;;;;;11.95;80.82;101175.81;4992809;28;20107;-75
2021/08/03 01:47:39;;;;;;;13.43;7.75;;;;;;;11.93;80.71;101177.75;4990702;28;20076;-75
2021/08/03 01:50:08;;;;;;;11.38;7.95;;;;;;;11.93;80.75;101180.34;5006439;28;20029;-74
2021/08/03 01:52:37;;;;;;;14.98;9.30;;;;;;;11.92;81.05;101178.72;4997571;28;20054;-75
2021/08/03 01:55:10;;;;;;;11.60;7.43;;;;;;;11.88;81.05;101186.00;4980792;28;20132;-75
2021/08/03 01:57:41;;;;;;;13.15;8.32;;;;;;;11.84;81.34;101176.06;4989120;28;20100;-74
2021/08/03 02:00:13;;;;;;;11.60;6.82;;;;;;;11.82;81.37;101178.81;4990069;28;20037;-75
2021/08/03 02:02:44;;;;;;;10.73;7.70;;;;;;;11.81;81.55;101179.78;5007506;28;20037;-74
2021/08/03 02:05:14;;;;;;;11.13;7.85;;;;;;;11.79;81.75;101176.53;5001229;28;20364;-74
2021/08/03 02:07:51;;;;;;;12.45;8.02;;;;;;;11.82;81.81;101180.59;5007583;28;20033;-75
2021/08/03 02:10:22;;;;;;;14.43;7.88;;;;;;;11.83;81.94;101177.84;4983869;28;20042;-75
2021/08/03 02:12:49;;;;;;;15.25;8.35;;;;;;;11.83;82.09;101175.25;4989859;28;20526;-75
2021/08/03 02:15:16;;;;;;;11.85;8.73;;;;;;;11.82;82.32;101176.19;4981385;28;20561;-74
2021/08/03 02:17:42;;;;;;;16.52;9.10;;;;;;;11.83;82.50;101177.03;5004956;28;20310;-75
2021/08/03 02:20:17;;;;;;;18.67;9.30;;;;;;;11.86;82.31;101169.72;4983922;28;20068;-75
2021/08/03 02:22:49;;;;;;;13.88;9.95;;;;;;;11.90;82.45;101169.44;4992911;28;20236;-75
2021/08/03 02:25:22;;;;;;;16.02;10.13;;;;;;;11.91;82.51;101166.72;5003944;28;20108;-75
2021/08/03 02:27:47;;;;;;;14.60;10.13;;;;;;;11.91;82.58;101166.72;5002275;28;20061;-75
2021/08/03 02:30:13;;;;;;;14.98;10.45;;;;;;;11.93;82.71;101164.75;4993905;28;20044;-76
2021/08/03 02:32:46;;;;;;;12.65;9.32;;;;;;;11.94;82.94;101165.56;5005813;28;20368;-75
2021/08/03 02:35:17;;;;;;;20.45;9.93;;;;;;;11.97;82.93;101168.66;4989101;28;20042;-75
2021/08/03 02:37:49;;;;;;;14.45;9.95;;;;;;;11.97;82.96;101171.28;4992027;28;20116;-75
2021/08/03 02:40:15;;;;;;;21.52;11.18;;;;;;;11.96;83.40;101167.06;5011969;28;20491;-75
2021/08/03 02:42:55;;;;;;;20.63;10.13;;;;;;;11.96;83.61;101168.81;5013492;28;20038;-76
2021/08/03 02:45:21;;;;;;;13.75;9.25;;;;;;;11.98;83.92;101170.31;5002244;28;20030;-77
2021/08/03 02:47:52;;;;;;;13.82;8.95;;;;;;;12.03;83.86;101172.44;4980600;28;20044;-76
2021/08/03 02:50:22;;;;;;;14.82;9.32;;;;;;;12.06;83.88;101172.13;4998880;28;20022;-76
2021/08/03 02:52:51;;;;;;;13.93;8.80;;;;;;;12.09;84.03;101166.59;5007906;28;20026;-76
2021/08/03 02:55:23;;;;;;;13.95;9.35;;;;;;;12.13;84.35;101169.69;4986823;28;20124;-76
2021/08/03 02:57:58;;;;;;;22.13;9.03;;;;;;;12.15;84.24;101165.16;5004616;28;20031;-77
2021/08/03 03:00:24;;;;;;;17.77;11.20;;;;;;;12.22;84.09;101167.00;4996309;28;20488;-75
2021/08/03 03:02:51;;;;;;;17.92;11.95;;;;;;;12.20;84.40;101165.50;4989666;28;20030;-76
2021/08/03 03:05:28;;;;;;;16.33;10.45;;;;;;;12.14;85.06;101155.75;4975290;28;20034;-77
2021/08/03 03:08:03;;;;;;;18.58;9.63;;;;;;;12.11;85.41;101150.84;5012418;28;20056;-76
2021/08/03 03:10:31;;;;;;;12.07;9.48;;;;;;;12.13;85.58;101143.72;4993941;28;20391;-76
2021/08/03 03:13:02;;;;;;;16.88;8.90;;;;;;;12.16;85.75;101144.22;4995187;28;20105;-77
2021/08/03 03:15:30;;;;;;;15.52;10.30;;;;;;;12.18;85.65;101138.84;4988415;28;20030;-77
2021/08/03 03:17:57;;;;;;;15.85;10.55;;;;;;;12.20;85.53;101153.31;4983223;28;20030;-80
2021/08/03 03:20:23;;;;;;;14.68;10.95;;;;;;;12.19;85.65;101141.31;4971944;28;20487;-76
2021/08/03 03:22:52;;;;;;;13.52;9.10;;;;;;;12.19;85.57;101135.31;5001049;28;20285;-76
2021/08/03 03:25:22;;;;;;;18.23;9.75;;;;;;;12.20;85.77;101140.31;5006747;28;20476;-76
2021/08/03 03:27:49;;;;;;;15.68;9.50;;;;;;;12.22;85.55;101141.00;5006089;28;20104;-77
2021/08/03 03:30:17;;;;;;;13.75;9.07;;;;;;;12.23;85.52;101141.81;5007647;28;20092;-76
2021/08/03 03:32:45;;;;;;;12.82;8.82;;;;;;;12.25;85.47;101140.66;4992622;28;20125;-76
2021/08/03 03:35:13;;;;;;;14.02;8.98;;;;;;;12.26;85.07;101134.50;4977866;28;20300;-77
2021/08/03 03:37:42;;;;;;;13.88;9.07;;;;;;;12.29;84.90;101135.16;5015392;28;20084;-76
2021/08/03 03:40:09;;;;;;;13.48;9.02;;;;;;;12.31;84.56;101135.81;4990761;28;20212;-76
2021/08/03 03:42:35;;;;;;;12.77;8.70;;;;;;;12.32;85.11;101130.44;4999061;28;20034;-76
2021/08/03 03:45:03;;;;;;;15.68;9.23;;;;;;;12.35;84.91;101129.31;5002022;28;20266;-73
2021/08/03 03:47:35;;;;;;;13.45;8.45;;;;;;;12.36;84.66;101125.75;5007744;28;20030;-75
2021/08/03 03:50:11;;;;;;;18.13;9.10;;;;;;;12.36;84.52;101130.94;4998903;28;20512;-76
2021/08/03 03:52:45;;;;;;;13.05;8.45;;;;;;;12.37;84.85;101133.38;5007221;28;20050;-76
2021/08/03 03:55:18;;;;;;;14.55;8.88;;;;;;;12.37;84.54;101130.78;4988449;28;20401;-75
2021/08/03 03:57:45;;;;;;;;;;;;;;;12.38;84.69;101124.59;4980326;28;20068;-76
2021/08/03 04:00:18;;;;;;;11.30;7.32;;;;;;;12.40;84.55;101129.66;4994684;28;20492;-75
2021/08/03 04:02:45;;;;;;;14.23;8.93;;;;;;;12.39;85.14;101126.22;4996270;28;20518;-76
2021/08/03 04:05:16;;;;;;;13.88;7.85;;;;;;;12.41;85.14;101134.69;4990606;28;20479;-75
2021/08/03 04:07:49;;;;;;;12.70;8.07;;;;;;;12.42;85.13;101132.91;4991916;28;20030;-76
2021/08/03 04:10:19;;;;;;;19.95;10.07;;;;;;;12.41;85.07;101132.09;4998202;28;20513;-76
2021/08/03 04:12:47;;;;;;;12.10;8.40;;;;;;;12.41;85.23;101126.06;4970445;28;20483;-76
2021/08/03 04:15:14;;;;;;;17.90;9.88;;;;;;;12.44;85.18;101129.16;5003237;28;20033;-76
2021/08/03 04:17:40;;;;;;;15.88;10.63;;;;;;;12.46;85.22;101129.81;4977522;28;20048;-76
2021/08/03 04:20:07;;;;;;;16.38;9.93;;;;;;;12.42;85.60;101131.09;4986544;28;20472;-76
2021/08/03 04:22:32;;;;;;;14.80;9.05;;;;;;;12.39;85.91;101133.22;4986464;28;20026;-75
2021/08/03 04:24:58;;;;;;;12.70;8.27;;;;;;;12.40;86.20;101134.84;4992625;28;20037;-76
2021/08/03 04:27:23;;;;;;;10.68;7.88;;;;;;;12.42;85.99;101136.31;4995282;28;20060;-76
2021/08/03 04:29:49;;;;;;;13.57;7.97;;;;;;;12.44;85.76;101128.34;4996798;28;20044;-75
2021/08/03 04:32:14;;;;;;;13.80;8.88;;;;;;;12.46;85.65;101132.41;4984163;28;20018;-75
2021/08/03 04:34:40;;;;;;;10.80;7.60;;;;;;;12.49;85.76;101130.47;4978358;28;20026;-76
2021/08/03 04:37:07;;;;;;;10.45;7.13;;;;;;;12.50;85.43;101132.09;4998203;28;20052;-76
2021/08/03 04:39:33;;;;;;;13.57;8.20;;;;;;;12.52;85.37;101130.97;4991403;28;20036;-76
2021/08/03 04:41:59;;;;;;;12.13;8.80;;;;;;;12.55;85.30;101129.84;4996199;28;20483;-75
2021/08/03 04:44:24;;;;;;;15.00;8.23;;;;;;;12.55;85.29;101127.25;4987437;28;20026;-76
2021/08/03 04:46:50;;;;;;;14.48;8.00;;;;;;;12.54;85.42;101125.59;5020322;28;20030;-76
2021/08/03 04:49:15;;;;;;;11.88;7.88;;;;;;;12.54;85.50;101123.81;5004583;28;20034;-75
2021/08/03 04:51:41;;;;;;;10.55;7.60;;;;;;;12.56;85.59;101121.06;5000616;28;20037;-76
2021/08/03 04:54:07;;;;;;;14.45;10.80;;;;;;;12.64;85.60;101128.88;4989508;28;20031;-76
2021/08/03 04:56:33;;;;;;;16.77;9.43;;;;;;;12.68;85.99;101114.56;4983860;28;20030;-77
2021/08/03 04:58:59;;;;;;;13.32;8.68;;;;;;;12.62;86.39;101120.41;5000617;28;20085;-76
2021/08/03 05:01:25;;;;;;;17.60;9.30;;;;;;;12.60;86.43;101124.94;4969769;28;20615;-76
2021/08/03 05:03:50;;;;;;;13.52;9.95;;;;;;;12.61;86.80;101119.59;5017548;28;20026;-76
2021/08/03 05:06:16;;;;;;;14.48;9.63;;;;;;;12.60;86.44;101117.97;4998494;28;21238;-77
2021/08/03 05:08:42;;;;;;;15.07;10.65;;;;;;;12.68;86.63;101116.34;4988827;28;20446;-77
2021/08/03 05:11:07;;;;;;;19.25;12.30;;;;;;;12.81;86.36;101119.28;4983001;28;20029;-79
2021/08/03 05:13:33;;;;;;;19.55;11.82;;;;;;;12.85;86.39;101118.78;5006245;28;20030;-77
2021/08/03 05:15:59;;;;;;;17.85;12.38;;;;;;;12.81;86.41;101124.50;4996416;28;20512;-76
2021/08/03 05:18:24;;;;;;;21.50;12.98;;;;;;;12.90;86.46;101123.50;5007024;28;20202;-75
2021/08/03 05:20:50;;;;;;;19.38;12.57;;;;;;;12.84;86.51;101126.75;5005378;28;20022;-76
2021/08/03 05:23:16;;;;;;;24.13;14.23;;;;;;;12.85;86.52;101121.41;5002851;28;20034;-77
2021/08/03 05:25:42;;;;;;;21.52;14.25;;;;;;;12.82;86.83;101116.50;5006182;28;20615;-75
2021/08/03 05:28:08;;;;;;;26.67;14.75;;;;;;;12.82;86.79;101113.09;4993225;28;20032;-76
2021/08/03 05:30:34;;;;;;;21.70;13.30;;;;;;;12.81;86.86;101107.09;4990963;28;20049;-76
2021/08/03 05:32:59;;;;;;;14.82;10.90;;;;;;;12.79;87.23;101108.22;5001129;28;20486;-76
2021/08/03 05:35:25;;;;;;;21.35;13.93;;;;;;;12.81;87.49;101117.50;4987215;28;20033;-77
2021/08/03 05:37:50;;;;;;;21.33;14.15;;;;;;;12.84;87.56;101105.94;5009886;28;20033;-76
2021/08/03 05:40:19;;;;;;;25.67;15.60;;;;;;;12.94;87.36;101109.19;4980886;28;20038;-76
2021/08/03 05:42:44;;;;;;;22.45;15.20;;;;;;;12.97;87.35;101106.25;4984012;28;20025;-76
2021/08/03 05:45:10;;;;;;;25.42;15.35;;;;;;;12.98;87.18;101104.50;5000741;28;20038;-76
2021/08/03 05:47:35;;;;;;;24.15;15.32;;;;;;;13.01;87.11;101106.75;4992699;28;20018;-75
2021/08/03 05:50:02;;;;;;;24.38;14.90;;;;;;;13.17;87.26;101106.72;5010465;28;20030;-75
2021/08/03 05:52:28;;;;;;;25.27;14.85;;;;;;;13.12;87.07;101103.81;5007815;28;20026;-76
2021/08/03 05:54:53;;;;;;;21.52;15.50;;;;;;;13.14;87.29;101106.25;5001894;28;20898;-76
2021/08/03 05:57:19;;;;;;;27.98;18.55;;;;;;;13.39;86.38;101107.88;5008648;28;20431;-75
2021/08/03 05:59:44;;;;;;;25.52;16.40;;;;;;;13.33;85.86;101107.69;4973950;28;20475;-75
2021/08/03 06:02:10;;;;;;;26.05;16.80;;;;;;;13.31;86.04;101107.06;4983452;28;20468;-75
2021/08/03 06:04:35;;;;;;;19.02;12.57;;;;;;;13.22;86.51;101104.44;4992492;28;20546;-74
2021/08/03 06:07:02;;;;;;;24.17;15.10;;;;;;;13.18;86.29;101113.53;4991370;28;20079;-75
2021/08/03 06:09:28;;;;;;;21.42;12.75;;;;;;;13.18;86.58;101113.53;4988094;28;20558;-75
2021/08/03 06:11:55;;;;;;;24.70;16.63;;;;;;;13.20;86.65;101116.00;4997861;28;20065;-75
2021/08/03 06:14:26;;;;;;;28.77;17.88;;;;;;;13.29;86.13;101106.38;5006126;28;20112;-75
2021/08/03 06:16:52;;;;;;;24.50;14.68;;;;;;;13.29;86.16;101111.59;5000226;28;20030;-75
2021/08/03 06:19:19;;;;;;;20.17;12.85;;;;;;;13.27;86.30;101113.56;4995267;28;20072;-75
2021/08/03 06:21:46;;;;;;;19.98;13.80;;;;;;;13.27;86.63;101111.75;4988616;28;20038;-75
2021/08/03 06:24:15;;;;;;;21.17;13.95;;;;;;;13.30;86.58;101110.59;4985983;28;20030;-75
2021/08/03 06:26:43;;;;;;;29.35;15.80;;;;;;;13.37;86.35;101112.44;5002384;28;20026;-75
2021/08/03 06:29:08;;;;;;;26.30;17.10;;;;;;;13.50;85.27;101117.09;4990731;28;20025;-75
2021/08/03 06:31:34;;;;;;;22.17;14.55;;;;;;;13.42;85.91;101111.91;4983421;28;20095;-75
2021/08/03 06:34:01;;;;;;;25.10;16.38;;;;;;;13.38;86.26;101108.81;4990067;28;20034;-75
2021/08/03 06:36:27;;;;;;;22.08;14.60;;;;;;;13.37;86.48;101112.44;4982057;28;20073;-75
2021/08/03 06:38:52;;;;;;;24.35;15.68;;;;;;;13.40;86.63;101104.25;5015116;28;20025;-75
2021/08/03 06:41:34;;;;;;;22.98;17.08;;;;;;;13.42;86.57;101104.91;5006088;28;20033;-75
2021/08/03 06:44:11;;;;;;;27.15;18.63;;;;;;;13.46;86.45;101112.41;4992057;28;20193;-76
2021/08/03 06:46:40;;;;;;;25.35;16.08;;;;;;;13.55;85.53;101108.78;4990184;28;20065;-75
2021/08/03 06:49:07;;;;;;;26.20;16.00;;;;;;;13.52;85.79;101104.72;5008185;28;20046;-75
2021/08/03 06:51:36;;;;;;;25.63;16.08;;;;;;;13.58;85.76;101098.00;4985794;28;20027;-75
2021/08/03 06:54:05;;;;;;;31.50;17.98;;;;;;;13.62;86.08;101099.31;4975628;28;20038;-76
2021/08/03 06:56:34;;;;;;;30.63;19.02;;;;;;;13.63;86.17;101093.91;5009177;28;20065;-75
2021/08/03 06:59:16;;;;;;;26.70;17.45;;;;;;;13.69;85.99;101094.22;4998589;28;20038;-75
2021/08/03 07:01:54;;;;;;;23.40;14.88;;;;;;;13.71;86.03;101087.06;5007346;28;20472;-75
2021/08/03 07:04:24;;;;;;;28.92;17.00;;;;;;;13.75;85.91;101086.56;4998265;28;20034;-75
2021/08/03 07:06:56;;;;;;;24.45;14.55;;;;;;;13.80;85.58;101086.84;5013398;28;20518;-75
2021/08/03 07:09:25;;;;;;;29.40;15.60;;;;;;;13.82;85.94;101094.50;5003975;28;20034;-76
2021/08/03 07:11:55;;;;;;;23.42;14.50;;;;;;;13.86;85.60;101090.56;5000460;28;20099;-76
2021/08/03 07:14:24;;;;;;;25.42;16.75;;;;;;;13.97;85.45;101086.78;5013977;28;20038;-75
2021/08/03 07:16:54;;;;;;;23.52;15.88;;;;;;;14.02;85.07;101089.69;4980046;28;20368;-75
2021/08/03 07:19:23;;;;;;;23.33;17.55;;;;;;;14.09;84.86;101092.41;4990018;28;20168;-76
2021/08/03 07:21:50;;;;;;;27.75;15.32;;;;;;;14.38;82.75;101105.59;4989628;28;20038;-76
2021/08/03 07:24:18;;;;;;;29.13;17.52;;;;;;;14.36;83.13;101101.53;4977409;28;20029;-75
2021/08/03 07:26:44;;;;;;;21.40;14.68;;;;;;;14.21;83.53;101096.25;4993872;28;20044;-75
2021/08/03 07:29:09;;;;;;;23.13;15.75;;;;;;;14.23;83.37;101093.47;5001397;28;20191;-76
2021/08/03 07:31:36;;;;;;;22.48;15.50;;;;;;;14.32;83.44;101098.47;5001216;28;20060;-76
2021/08/03 07:34:04;;;;;;;22.05;14.77;;;;;;;14.45;81.80;101091.84;4994582;28;20065;-74
2021/08/03 07:36:29;;;;;;;21.50;12.60;;;;;;;14.41;81.29;101101.84;4984229;28;20394;-75
2021/08/03 07:38:58;;;;;;;23.85;13.45;;;;;;;14.48;81.53;101089.69;4992504;28;20030;-75
2021/08/03 07:41:25;;;;;;;18.92;11.40;;;;;;;14.59;82.19;101089.31;5001765;28;20728;-76
2021/08/03 07:43:54;;;;;;;21.95;13.85;;;;;;;14.75;81.95;101091.00;5013300;28;20033;-77
2021/08/03 07:46:20;;;;;;;20.83;13.90;;;;;;;14.83;81.17;101092.72;5007619;28;20341;-77
2021/08/03 07:48:50;;;;;;;20.60;13.00;;;;;;;15.12;80.70;101088.53;4994989;28;20026;-76
2021/08/03 07:51:21;;;;;;;22.30;13.55;;;;;;;15.14;81.31;101097.84;4984709;28;20119;-76
2021/08/03 07:53:47;;;;;;;23.15;13.15;;;;;;;15.18;80.96;101100.88;4994802;28;20025;-76
2021/08/03 07:56:14;;;;;;;20.92;12.90;;;;;;;15.16;81.24;101098.47;4999359;28;20145;-77
2021/08/03 07:58:39;;;;;;;17.27;10.77;;;;;;;15.18;81.42;101087.81;4985439;28;20028;-76
2021/08/03 08:01:05;;;;;;;16.70;11.02;;;;;;;15.17;81.78;101091.44;4985922;28;20502;-75
2021/08/03 08:03:32;;;;;;;18.35;11.82;;;;;;;15.14;81.50;101086.56;5012771;28;20041;-74
2021/08/03 08:05:57;;;;;;;17.38;10.38;;;;;;;15.13;81.52;101087.56;5004964;28;20049;-76
2021/08/03 08:08:23;;;;;;;19.52;10.02;;;;;;;15.09;81.79;101092.31;5021503;28;20057;-76
2021/08/03 08:10:48;;;;;;;17.98;11.20;;;;;;;15.12;80.82;101084.13;4985346;28;20030;-75
2021/08/03 08:13:14;;;;;;;13.77;8.80;;;;;;;15.16;81.04;101079.34;4976140;28;20021;-77
2021/08/03 08:15:41;;;;;;;19.50;10.73;;;;;;;15.25;80.84;101075.66;4989388;28;20029;-77
2021/08/03 08:18:08;;;;;;;17.02;11.10;;;;;;;15.34;80.03;101073.78;5003909;28;20040;-76
2021/08/03 08:20:42;;;;;;;15.38;9.20;;;;;;;15.42;80.62;101070.25;5011652;28;20667;-74
2021/08/03 08:23:09;;;;;;;17.17;10.65;;;;;;;15.47;80.12;101071.34;4992764;28;20388;-76
2021/08/03 08:25:34;;;;;;;19.15;11.88;;;;;;;15.56;79.34;101065.03;4997848;28;20045;-75
2021/08/03 08:28:00;;;;;;;21.58;13.05;;;;;;;15.68;77.50;101065.38;5000860;28;20029;-76
2021/08/03 08:30:25;;;;;;;20.15;13.82;;;;;;;15.75;76.54;101055.84;4999079;28;20084;-75
2021/08/03 08:32:51;;;;;;;16.08;11.38;;;;;;;15.74;76.67;101058.63;5007510;28;20041;-76
2021/08/03 08:35:17;;;;;;;18.02;11.77;;;;;;;15.73;77.91;101059.59;4983491;28;20415;-76
2021/08/03 08:37:43;;;;;;;22.98;12.82;;;;;;;15.72;77.33;101048.31;5013068;28;20072;-76
2021/08/03 08:40:10;;;;;;;20.08;12.85;;;;;;;15.75;77.53;101052.41;5002717;28;20476;-76
2021/08/03 08:42:37;;;;;;;14.40;9.38;;;;;;;15.79;77.93;101045.81;4995063;28;20400;-77
2021/08/03 08:45:05;;;;;;;21.90;13.40;;;;;;;15.84;77.72;101043.47;4984617;28;20042;-75
2021/08/03 08:47:31;;;;;;;26.75;15.23;;;;;;;16.06;74.30;101046.09;4977854;28;20053;-75
2021/08/03 08:50:03;;;;;;;23.08;14.80;;;;;;;16.23;73.56;101044.03;5000410;28;20022;-74
2021/08/03 08:52:29;;;;;;;24.80;13.93;;;;;;;16.19;73.29;101048.03;5016348;28;20060;-73
2021/08/03 08:54:54;;;;;;;17.70;10.93;;;;;;;16.12;72.31;101051.41;5009780;28;20026;-73
2021/08/03 08:57:20;;;;;;;18.77;10.68;;;;;;;16.22;72.32;101052.88;5018737;28;20026;-75
2021/08/03 08:59:46;;;;;;;16.40;9.43;;;;;;;16.23;72.25;101062.34;4995778;28;20051;-75
2021/08/03 09:02:12;;;;;;;15.40;9.60;;;;;;;16.37;70.72;101051.03;4991783;28;20029;-75
2021/08/03 09:04:44;;;;;;;15.10;9.02;;;;;;;16.32;71.24;101056.00;5016544;28;20068;-74
2021/08/03 09:07:10;;;;;;;12.77;8.45;;;;;;;16.42;72.11;101051.25;5006610;28;20135;-74
2021/08/03 09:09:43;;;;;;;18.88;8.00;;;;;;;16.57;69.25;101045.94;5025967;28;20479;-73
2021/08/03 09:12:10;;;;;;;13.77;8.35;;;;;;;16.52;69.43;101043.09;4997711;28;20041;-74
2021/08/03 09:14:41;;;;;;;13.88;8.23;;;;;;;16.65;68.61;101042.38;5014435;28;20120;-74
2021/08/03 09:17:08;;;;;;;13.02;5.93;;;;;;;16.75;68.85;101048.09;5002905;28;20079;-75
2021/08/03 09:19:39;;;;;;;12.90;7.07;;;;;;;16.90;68.14;101046.22;4998810;28;20029;-76
2021/08/03 09:22:28;;;;;;;9.00;5.05;;;;;;;17.08;68.68;101047.53;5003057;28;20132;-74
2021/08/03 09:25:14;;;;;;;9.85;5.03;;;;;;;17.23;69.03;101042.16;4986506;28;20030;-75
2021/08/03 09:27:43;;;;;;;11.95;5.25;;;;;;;17.34;68.50;101052.09;4985201;28;20442;-76
2021/08/03 09:30:36;;;;;;;9.40;4.38;;;;;;;17.47;67.86;101048.72;4993590;28;20120;-75
2021/08/03 09:33:03;;;;;;;9.07;5.22;;;;;;;17.59;66.80;101047.16;5010008;28;20111;-74
2021/08/03 09:35:31;;;;;;;11.88;6.25;;;;;;;17.69;64.91;101044.97;4995340;28;20128;-76
2021/08/03 09:37:57;;;;;;;8.93;4.68;;;;;;;17.75;65.76;101043.38;5016489;28;20033;-76
2021/08/03 09:40:27;;;;;;;6.45;4.03;;;;;;;17.89;65.93;101039.84;5014682;28;20029;-75
2021/08/03 09:43:10;;;;;;;9.80;5.43;;;;;;;18.02;62.90;101044.28;5000689;28;20038;-73
2021/08/03 09:45:56;;;;;;;9.07;4.20;;;;;;;18.16;60.96;101039.88;4998221;28;20151;-74
2021/08/03 09:48:23;;;;;;;7.22;4.43;;;;;;;18.18;62.31;101043.09;4997448;28;20403;-73
2021/08/03 09:51:02;;;;;;;8.65;4.90;;;;;;;18.17;59.43;101044.09;4995584;28;20030;-73
2021/08/03 09:53:48;;;;;;;6.78;4.55;;;;;;;17.96;60.54;101042.47;4986931;28;20511;-73
2021/08/03 09:56:15;;;;;;;6.40;4.13;;;;;;;17.96;61.75;101039.03;5001544;28;20036;-73
2021/08/03 09:58:55;;;;;;;7.38;4.43;;;;;;;18.02;60.59;101040.84;5012841;28;20018;-72
2021/08/03 10:01:21;;;;;;;8.85;4.10;;;;;;;18.02;61.40;101035.59;5002537;28;20036;-73
2021/08/03 10:03:50;;;;;;;6.75;3.60;;;;;;;18.02;62.26;101038.22;5016383;28;20412;-73
2021/08/03 10:06:17;;;;;;;4.45;3.05;;;;;;;18.04;63.65;101042.25;5011691;28;20025;-73
2021/08/03 10:08:45;;;;;;;9.52;4.13;;;;;;;18.06;61.92;101034.19;5007737;28;20053;-73
2021/08/03 10:11:13;;;;;;;3.35;2.88;;;;;;;18.04;62.03;101036.22;4993479;28;20042;-73
2021/08/03 10:13:38;;;;;;;7.13;3.88;;;;;;;18.02;62.62;101035.59;5006978;28;20208;-74
2021/08/03 10:16:04;;;;;;;3.95;2.80;;;;;;;18.01;63.20;101032.19;5000144;28;20025;-74
2021/08/03 10:18:29;;;;;;;9.70;4.38;;;;;;;18.08;63.58;101032.19;4980546;28;20045;-73
2021/08/03 10:20:56;;;;;;;10.48;3.90;;;;;;;18.13;62.73;101032.41;4995154;28;20061;-74
2021/08/03 10:23:23;;;;;;;6.65;3.20;;;;;;;18.13;64.06;101028.97;5009459;28;20030;-73
2021/08/03 10:25:48;;;;;;;5.80;2.80;;;;;;;18.12;63.47;101028.16;4998243;28;20583;-73
2021/08/03 10:28:26;;;;;;;5.30;3.00;;;;;;;18.15;62.86;101021.69;4993654;28;20180;-75
2021/08/03 10:30:54;;;;;;;6.68;3.75;;;;;;;18.04;61.58;101023.09;5007948;28;20033;-75
2021/08/03 10:33:42;;;;;;;5.05;2.80;;;;;;;18.00;63.07;101022.69;4998870;28;20502;-73
2021/08/03 10:36:09;;;;;;;6.95;2.65;;;;;;;18.03;63.59;101027.53;4992969;28;20038;-73
2021/08/03 10:38:35;;;;;;;7.43;2.70;;;;;;;18.05;63.77;101019.47;4970574;28;20026;-76
2021/08/03 10:41:03;;;;;;;4.38;2.80;;;;;;;18.04;63.08;101020.47;5004037;28;20029;-74
2021/08/03 10:43:34;;;;;;;6.75;3.08;;;;;;;17.95;61.36;101019.88;5000956;28;20030;-74
2021/08/03 10:46:06;;;;;;;4.43;2.65;;;;;;;17.94;61.30;101023.50;4991474;28;20065;-74
2021/08/03 10:48:37;;;;;;;5.95;3.25;;;;;;;17.94;58.87;101018.25;5003634;28;20034;-75
2021/08/03 10:51:18;;;;;;;5.45;1.95;;;;;;;17.86;59.96;101018.44;4996168;28;20030;-75
2021/08/03 10:54:07;;;;;;;5.63;2.72;;;;;;;17.87;61.09;101018.22;5000945;28;20508;-74
2021/08/03 10:56:52;;;;;;;12.15;4.07;;;;;;;17.90;62.99;101009.97;5001035;28;20121;-76
2021/08/03 10:59:40;;;;;;;7.60;4.00;;;;;;;17.88;62.80;101016.41;4998934;28;20029;-77
2021/08/03 11:02:29;;;;;;;4.63;3.03;;;;;;;17.86;62.81;101016.63;4977384;28;20033;-77
2021/08/03 11:04:59;;;;;;;6.00;3.13;;;;;;;17.90;64.05;101019.66;4995459;28;20034;-77
2021/08/03 11:07:24;;;;;;;6.60;3.72;;;;;;;17.92;66.96;101016.84;4986840;28;20455;-76
2021/08/03 11:09:54;;;;;;;9.55;5.05;;;;;;;17.90;69.33;101014.41;4977785;28;20032;-77
2021/08/03 11:12:44;;;;;;;9.40;6.18;;;;;;;17.89;72.86;101015.41;5010296;28;20057;-76
2021/08/03 11:15:22;;;;;;;9.95;5.30;;;;;;;17.83;72.82;101011.72;4984653;28;20060;-77
2021/08/03 11:18:07;;;;;;;11.73;6.47;;;;;;;17.77;73.45;101015.16;5001341;28;20041;-78
2021/08/03 11:20:35;;;;;;;6.00;4.30;;;;;;;17.68;73.90;101011.88;4998963;28;20052;-77
2021/08/03 11:23:08;;;;;;;13.15;6.20;;;;;;;17.67;73.87;101010.28;4994117;28;20029;-75
2021/08/03 11:25:35;;;;;;;8.60;5.97;;;;;;;17.63;73.93;101008.25;4998981;28;20060;-77
2021/08/03 11:28:15;;;;;;;9.43;6.70;;;;;;;17.59;72.78;100999.97;4981695;28;21276;-77